sensor_id;sensor_type;location;lat;lon;timestamp;pressure;altitude;pressure_sealevel;temperature;humidity
70555;BME280;58104;52.744;15.242;2024-03-22T00:00:17;101285.21;;;18.39;46.73
70555;BME280;58104;52.744;15.242;2024-03-22T00:02:42;101284.85;;;18.33;46.59
70555;BME280;58104;52.744;15.242;2024-03-22T00:05:07;101276.54;;;18.30;46.83
70555;BME280;58104;52.744;15.242;2024-03-22T00:07:33;101276.14;;;18.28;46.82
70555;BME280;58104;52.744;15.242;2024-03-22T00:09:58;101270.31;;;18.31;46.52
70555;BME280;58104;52.744;15.242;2024-03-22T00:12:23;101272.74;;;18.27;46.91
70555;BME280;58104;52.744;15.242;2024-03-22T00:14:49;101273.16;;;18.26;46.87
70555;BME280;58104;52.744;15.242;2024-03-22T00:17:14;101276.39;;;18.31;46.74
70555;BME280;58104;52.744;15.242;2024-03-22T00:19:39;101277.57;;;18.25;46.70
70555;BME280;58104;52.744;15.242;2024-03-22T00:22:04;101280.69;;;18.24;46.70
70555;BME280;58104;52.744;15.242;2024-03-22T00:24:30;101285.12;;;18.29;46.83
70555;BME280;58104;52.744;15.242;2024-03-22T00:26:55;101280.54;;;18.23;46.18
70555;BME280;58104;52.744;15.242;2024-03-22T00:29:20;101280.00;;;18.10;46.66
70555;BME280;58104;52.744;15.242;2024-03-22T00:31:46;101274.49;;;18.21;46.88
70555;BME280;58104;52.744;15.242;2024-03-22T00:34:11;101272.88;;;18.11;46.39
70555;BME280;58104;52.744;15.242;2024-03-22T00:36:36;101269.72;;;18.13;46.65
70555;BME280;58104;52.744;15.242;2024-03-22T00:39:02;101267.72;;;18.10;45.84
70555;BME280;58104;52.744;15.242;2024-03-22T00:41:27;101264.22;;;18.08;46.56
70555;BME280;58104;52.744;15.242;2024-03-22T00:43:53;101266.38;;;18.04;45.88
70555;BME280;58104;52.744;15.242;2024-03-22T00:46:18;101267.49;;;18.09;47.09
70555;BME280;58104;52.744;15.242;2024-03-22T00:48:43;101266.71;;;18.21;47.03
70555;BME280;58104;52.744;15.242;2024-03-22T00:51:08;101263.32;;;17.99;45.98
70555;BME280;58104;52.744;15.242;2024-03-22T00:53:34;101265.44;;;17.97;46.13
70555;BME280;58104;52.744;15.242;2024-03-22T00:55:59;101259.18;;;17.88;46.59
70555;BME280;58104;52.744;15.242;2024-03-22T00:58:26;101259.22;;;17.82;46.84
70555;BME280;58104;52.744;15.242;2024-03-22T01:00:50;101258.35;;;17.87;46.83
70555;BME280;58104;52.744;15.242;2024-03-22T01:03:15;101259.10;;;17.83;46.16
70555;BME280;58104;52.744;15.242;2024-03-22T01:05:41;101257.68;;;17.82;46.49
70555;BME280;58104;52.744;15.242;2024-03-22T01:08:06;101261.28;;;17.81;46.14
70555;BME280;58104;52.744;15.242;2024-03-22T01:10:32;101263.64;;;17.72;46.19
70555;BME280;58104;52.744;15.242;2024-03-22T01:12:57;101261.72;;;17.82;46.40
70555;BME280;58104;52.744;15.242;2024-03-22T01:15:22;101259.82;;;17.83;45.87
70555;BME280;58104;52.744;15.242;2024-03-22T01:17:47;101255.40;;;17.76;45.75
70555;BME280;58104;52.744;15.242;2024-03-22T01:20:13;101248.95;;;17.66;46.47
70555;BME280;58104;52.744;15.242;2024-03-22T01:22:38;101248.19;;;17.67;46.25
70555;BME280;58104;52.744;15.242;2024-03-22T01:25:04;101246.81;;;17.62;46.38
70555;BME280;58104;52.744;15.242;2024-03-22T01:27:29;101245.43;;;17.48;46.35
70555;BME280;58104;52.744;15.242;2024-03-22T01:29:54;101244.95;;;17.56;46.62
70555;BME280;58104;52.744;15.242;2024-03-22T01:32:20;101242.26;;;17.67;46.45
70555;BME280;58104;52.744;15.242;2024-03-22T01:34:45;101241.07;;;17.63;46.18
70555;BME280;58104;52.744;15.242;2024-03-22T01:37:10;101238.37;;;17.59;46.42
70555;BME280;58104;52.744;15.242;2024-03-22T01:39:36;101240.85;;;17.58;46.21
70555;BME280;58104;52.744;15.242;2024-03-22T01:42:01;101238.93;;;17.66;46.07
70555;BME280;58104;52.744;15.242;2024-03-22T01:44:28;101238.07;;;17.52;45.89
70555;BME280;58104;52.744;15.242;2024-03-22T01:46:52;101240.71;;;17.46;45.97
70555;BME280;58104;52.744;15.242;2024-03-22T01:49:17;101237.49;;;17.57;46.07
70555;BME280;58104;52.744;15.242;2024-03-22T01:51:43;101235.37;;;17.58;45.75
70555;BME280;58104;52.744;15.242;2024-03-22T01:54:09;101238.54;;;17.66;45.69
70555;BME280;58104;52.744;15.242;2024-03-22T01:56:34;101239.91;;;17.61;45.69
70555;BME280;58104;52.744;15.242;2024-03-22T01:58:59;101235.71;;;17.57;45.87
70555;BME280;58104;52.744;15.242;2024-03-22T02:01:24;101235.36;;;17.54;45.54
70555;BME280;58104;52.744;15.242;2024-03-22T02:03:49;101228.90;;;17.44;46.23
70555;BME280;58104;52.744;15.242;2024-03-22T02:06:15;101227.29;;;17.42;45.10
70555;BME280;58104;52.744;15.242;2024-03-22T02:08:40;101223.86;;;17.46;45.87
70555;BME280;58104;52.744;15.242;2024-03-22T02:11:06;101223.39;;;17.48;45.62
70555;BME280;58104;52.744;15.242;2024-03-22T02:13:31;101223.30;;;17.52;45.35
70555;BME280;58104;52.744;15.242;2024-03-22T02:15:57;101215.96;;;17.49;45.34
70555;BME280;58104;52.744;15.242;2024-03-22T02:18:22;101216.01;;;17.43;45.17
70555;BME280;58104;52.744;15.242;2024-03-22T02:20:47;101215.56;;;17.54;45.34
70555;BME280;58104;52.744;15.242;2024-03-22T02:23:13;101212.48;;;17.43;44.52
70555;BME280;58104;52.744;15.242;2024-03-22T02:25:38;101209.07;;;17.38;45.05
70555;BME280;58104;52.744;15.242;2024-03-22T02:28:04;101210.80;;;17.35;45.30
70555;BME280;58104;52.744;15.242;2024-03-22T02:30:29;101209.40;;;17.44;45.41
70555;BME280;58104;52.744;15.242;2024-03-22T02:32:54;101205.23;;;17.40;45.09
70555;BME280;58104;52.744;15.242;2024-03-22T02:35:20;101208.61;;;17.34;45.49
70555;BME280;58104;52.744;15.242;2024-03-22T02:37:45;101205.27;;;17.44;45.78
70555;BME280;58104;52.744;15.242;2024-03-22T02:40:12;101204.12;;;17.53;45.31
70555;BME280;58104;52.744;15.242;2024-03-22T02:42:36;101203.64;;;17.52;45.15
70555;BME280;58104;52.744;15.242;2024-03-22T02:45:01;101200.91;;;17.41;45.37
70555;BME280;58104;52.744;15.242;2024-03-22T02:47:27;101202.89;;;17.42;45.37
70555;BME280;58104;52.744;15.242;2024-03-22T02:49:52;101204.03;;;17.45;44.55
70555;BME280;58104;52.744;15.242;2024-03-22T02:52:18;101200.58;;;17.50;45.28
70555;BME280;58104;52.744;15.242;2024-03-22T02:54:43;101197.08;;;17.44;44.42
70555;BME280;58104;52.744;15.242;2024-03-22T02:57:08;101194.35;;;17.29;44.69
70555;BME280;58104;52.744;15.242;2024-03-22T02:59:34;101194.12;;;17.21;44.48
70555;BME280;58104;52.744;15.242;2024-03-22T03:01:59;101200.73;;;17.19;44.20
70555;BME280;58104;52.744;15.242;2024-03-22T03:04:25;101195.43;;;17.08;45.63
70555;BME280;58104;52.744;15.242;2024-03-22T03:06:50;101186.85;;;17.11;44.88
70555;BME280;58104;52.744;15.242;2024-03-22T03:09:15;101185.03;;;17.04;44.81
70555;BME280;58104;52.744;15.242;2024-03-22T03:11:41;101191.11;;;17.07;45.16
70555;BME280;58104;52.744;15.242;2024-03-22T03:14:06;101180.90;;;16.92;45.63
70555;BME280;58104;52.744;15.242;2024-03-22T03:16:32;101173.95;;;17.05;45.18
70555;BME280;58104;52.744;15.242;2024-03-22T03:18:57;101169.86;;;16.85;44.96
70555;BME280;58104;52.744;15.242;2024-03-22T03:21:23;101160.93;;;16.91;45.02
70555;BME280;58104;52.744;15.242;2024-03-22T03:23:49;101153.20;;;16.98;45.28
70555;BME280;58104;52.744;15.242;2024-03-22T03:26:14;101152.13;;;17.00;45.52
70555;BME280;58104;52.744;15.242;2024-03-22T03:28:40;101152.64;;;17.04;44.54
70555;BME280;58104;52.744;15.242;2024-03-22T03:31:05;101150.34;;;16.90;44.69
70555;BME280;58104;52.744;15.242;2024-03-22T03:33:30;101149.87;;;16.88;45.00
70555;BME280;58104;52.744;15.242;2024-03-22T03:35:56;101146.13;;;16.82;44.89
70555;BME280;58104;52.744;15.242;2024-03-22T03:38:21;101144.87;;;16.80;45.04
70555;BME280;58104;52.744;15.242;2024-03-22T03:40:46;101149.03;;;16.77;45.01
70555;BME280;58104;52.744;15.242;2024-03-22T03:43:12;101148.84;;;16.77;45.09
70555;BME280;58104;52.744;15.242;2024-03-22T03:45:37;101142.86;;;16.79;45.05
70555;BME280;58104;52.744;15.242;2024-03-22T03:48:03;101137.39;;;16.73;44.98
70555;BME280;58104;52.744;15.242;2024-03-22T03:50:28;101132.33;;;16.73;45.05
70555;BME280;58104;52.744;15.242;2024-03-22T03:52:53;101126.75;;;16.66;45.09
70555;BME280;58104;52.744;15.242;2024-03-22T03:55:19;101119.95;;;16.55;45.12
70555;BME280;58104;52.744;15.242;2024-03-22T03:57:44;101119.99;;;16.61;45.12
70555;BME280;58104;52.744;15.242;2024-03-22T04:00:10;101118.45;;;16.60;45.44
70555;BME280;58104;52.744;15.242;2024-03-22T04:02:35;101117.12;;;16.70;45.38
70555;BME280;58104;52.744;15.242;2024-03-22T04:05:00;101112.84;;;16.61;45.12
70555;BME280;58104;52.744;15.242;2024-03-22T04:07:26;101107.12;;;16.65;45.60
70555;BME280;58104;52.744;15.242;2024-03-22T04:09:51;101110.80;;;16.55;45.27
70555;BME280;58104;52.744;15.242;2024-03-22T04:12:17;101105.18;;;16.48;45.30
70555;BME280;58104;52.744;15.242;2024-03-22T04:14:42;101107.54;;;16.48;45.61
70555;BME280;58104;52.744;15.242;2024-03-22T04:17:07;101105.23;;;16.46;45.55
70555;BME280;58104;52.744;15.242;2024-03-22T04:19:33;101107.38;;;16.48;45.18
70555;BME280;58104;52.744;15.242;2024-03-22T04:21:58;101100.30;;;16.40;45.50
70555;BME280;58104;52.744;15.242;2024-03-22T04:24:23;101096.26;;;16.37;45.71
70555;BME280;58104;52.744;15.242;2024-03-22T04:26:49;101088.22;;;16.51;46.10
70555;BME280;58104;52.744;15.242;2024-03-22T04:29:14;101083.77;;;16.59;45.87
70555;BME280;58104;52.744;15.242;2024-03-22T04:31:40;101082.83;;;16.42;45.89
70555;BME280;58104;52.744;15.242;2024-03-22T04:34:05;101082.74;;;16.35;45.90
70555;BME280;58104;52.744;15.242;2024-03-22T04:36:31;101076.36;;;16.47;45.88
70555;BME280;58104;52.744;15.242;2024-03-22T04:38:56;101069.13;;;16.37;45.83
70555;BME280;58104;52.744;15.242;2024-03-22T04:41:21;101064.30;;;16.56;45.42
70555;BME280;58104;52.744;15.242;2024-03-22T04:43:47;101058.69;;;16.42;46.36
70555;BME280;58104;52.744;15.242;2024-03-22T04:46:12;101059.45;;;16.61;45.61
70555;BME280;58104;52.744;15.242;2024-03-22T04:48:37;101060.06;;;16.45;45.52
70555;BME280;58104;52.744;15.242;2024-03-22T04:51:03;101058.44;;;16.56;45.83
70555;BME280;58104;52.744;15.242;2024-03-22T04:53:28;101060.18;;;16.53;45.65
70555;BME280;58104;52.744;15.242;2024-03-22T04:55:53;101052.91;;;16.46;45.68
70555;BME280;58104;52.744;15.242;2024-03-22T04:58:20;101053.36;;;16.53;45.60
70555;BME280;58104;52.744;15.242;2024-03-22T05:00:45;101055.15;;;16.39;45.94
70555;BME280;58104;52.744;15.242;2024-03-22T05:03:10;101062.49;;;16.46;45.74
70555;BME280;58104;52.744;15.242;2024-03-22T05:05:36;101070.04;;;16.44;45.81
70555;BME280;58104;52.744;15.242;2024-03-22T05:08:02;101068.91;;;16.37;45.69
70555;BME280;58104;52.744;15.242;2024-03-22T05:10:26;101067.26;;;16.28;45.82
70555;BME280;58104;52.744;15.242;2024-03-22T05:12:51;101069.79;;;16.33;46.24
70555;BME280;58104;52.744;15.242;2024-03-22T05:15:17;101070.78;;;16.29;46.16
70555;BME280;58104;52.744;15.242;2024-03-22T05:17:42;101068.82;;;16.49;45.56
70555;BME280;58104;52.744;15.242;2024-03-22T05:20:08;101068.66;;;16.46;45.56
70555;BME280;58104;52.744;15.242;2024-03-22T05:22:33;101067.58;;;16.46;45.81
70555;BME280;58104;52.744;15.242;2024-03-22T05:24:59;101062.38;;;16.42;45.41
70555;BME280;58104;52.744;15.242;2024-03-22T05:27:24;101061.87;;;16.56;45.55
70555;BME280;58104;52.744;15.242;2024-03-22T05:29:50;101055.33;;;16.50;44.88
70555;BME280;58104;52.744;15.242;2024-03-22T05:32:15;101055.52;;;16.43;45.90
70555;BME280;58104;52.744;15.242;2024-03-22T05:34:41;101053.44;;;16.20;45.92
70555;BME280;58104;52.744;15.242;2024-03-22T05:37:06;101053.22;;;16.18;47.11
70555;BME280;58104;52.744;15.242;2024-03-22T05:39:31;101050.89;;;16.09;47.48
70555;BME280;58104;52.744;15.242;2024-03-22T05:41:57;101047.47;;;16.03;48.42
70555;BME280;58104;52.744;15.242;2024-03-22T05:44:22;101044.36;;;15.98;48.41
70555;BME280;58104;52.744;15.242;2024-03-22T05:46:47;101040.92;;;16.01;48.77
70555;BME280;58104;52.744;15.242;2024-03-22T05:49:13;101031.28;;;16.13;50.37
70555;BME280;58104;52.744;15.242;2024-03-22T05:51:38;101022.10;;;16.31;50.71
70555;BME280;58104;52.744;15.242;2024-03-22T05:54:04;101016.45;;;16.47;49.77
70555;BME280;58104;52.744;15.242;2024-03-22T05:56:29;101016.15;;;16.39;48.97
70555;BME280;58104;52.744;15.242;2024-03-22T05:58:55;101013.16;;;16.45;50.18
70555;BME280;58104;52.744;15.242;2024-03-22T06:01:20;101012.99;;;16.52;50.23
70555;BME280;58104;52.744;15.242;2024-03-22T06:03:45;101013.60;;;16.28;50.12
70555;BME280;58104;52.744;15.242;2024-03-22T06:06:11;101009.74;;;16.37;51.60
70555;BME280;58104;52.744;15.242;2024-03-22T06:08:37;101008.31;;;16.29;51.54
70555;BME280;58104;52.744;15.242;2024-03-22T06:11:02;101009.73;;;16.49;51.66
70555;BME280;58104;52.744;15.242;2024-03-22T06:13:27;101014.47;;;16.55;48.97
70555;BME280;58104;52.744;15.242;2024-03-22T06:15:53;101010.02;;;16.51;49.00
70555;BME280;58104;52.744;15.242;2024-03-22T06:18:18;101010.18;;;16.41;47.77
70555;BME280;58104;52.744;15.242;2024-03-22T06:20:44;101005.02;;;16.56;48.62
70555;BME280;58104;52.744;15.242;2024-03-22T06:23:10;101000.74;;;16.46;48.69
70555;BME280;58104;52.744;15.242;2024-03-22T06:25:35;100994.76;;;16.42;48.15
70555;BME280;58104;52.744;15.242;2024-03-22T06:28:00;100985.83;;;16.42;47.70
70555;BME280;58104;52.744;15.242;2024-03-22T06:30:26;100981.00;;;16.73;48.26
70555;BME280;58104;52.744;15.242;2024-03-22T06:32:51;100969.96;;;16.86;47.14
70555;BME280;58104;52.744;15.242;2024-03-22T06:35:16;100957.92;;;16.86;46.72
70555;BME280;58104;52.744;15.242;2024-03-22T06:37:41;100957.15;;;17.00;46.73
70555;BME280;58104;52.744;15.242;2024-03-22T06:40:09;100956.25;;;17.06;46.45
70555;BME280;58104;52.744;15.242;2024-03-22T06:42:32;100957.37;;;16.99;46.08
70555;BME280;58104;52.744;15.242;2024-03-22T06:44:58;100950.90;;;16.99;46.44
70555;BME280;58104;52.744;15.242;2024-03-22T06:47:24;100947.91;;;17.01;46.08
70555;BME280;58104;52.744;15.242;2024-03-22T06:49:49;100948.47;;;16.93;45.32
70555;BME280;58104;52.744;15.242;2024-03-22T06:52:14;100945.84;;;16.97;46.46
70555;BME280;58104;52.744;15.242;2024-03-22T06:54:40;100942.15;;;17.13;45.41
70555;BME280;58104;52.744;15.242;2024-03-22T06:57:05;100940.24;;;17.24;44.76
70555;BME280;58104;52.744;15.242;2024-03-22T06:59:31;100941.15;;;17.29;44.96
70555;BME280;58104;52.744;15.242;2024-03-22T07:01:56;100936.99;;;17.30;50.31
70555;BME280;58104;52.744;15.242;2024-03-22T07:04:21;100936.57;;;17.40;50.11
70555;BME280;58104;52.744;15.242;2024-03-22T07:06:47;100929.90;;;17.40;48.62
70555;BME280;58104;52.744;15.242;2024-03-22T07:09:13;100920.59;;;17.28;49.65
70555;BME280;58104;52.744;15.242;2024-03-22T07:11:38;100918.83;;;17.31;48.81
70555;BME280;58104;52.744;15.242;2024-03-22T07:14:04;100918.07;;;17.07;48.80
70555;BME280;58104;52.744;15.242;2024-03-22T07:16:29;100912.69;;;17.05;50.51
70555;BME280;58104;52.744;15.242;2024-03-22T07:18:54;100912.41;;;17.15;49.55
70555;BME280;58104;52.744;15.242;2024-03-22T07:21:20;100913.20;;;17.34;50.23
70555;BME280;58104;52.744;15.242;2024-03-22T07:23:45;100915.14;;;17.27;47.71
70555;BME280;58104;52.744;15.242;2024-03-22T07:26:11;100913.99;;;17.19;48.72
70555;BME280;58104;52.744;15.242;2024-03-22T07:28:36;100911.39;;;17.21;49.43
70555;BME280;58104;52.744;15.242;2024-03-22T07:31:01;100911.32;;;17.22;48.45
70555;BME280;58104;52.744;15.242;2024-03-22T07:33:27;100911.54;;;16.97;48.62
70555;BME280;58104;52.744;15.242;2024-03-22T07:35:52;100909.14;;;17.17;49.52
70555;BME280;58104;52.744;15.242;2024-03-22T07:38:18;100906.52;;;17.09;48.22
70555;BME280;58104;52.744;15.242;2024-03-22T07:40:44;100901.33;;;16.39;48.95
70555;BME280;58104;52.744;15.242;2024-03-22T07:43:09;100901.58;;;16.11;49.56
70555;BME280;58104;52.744;15.242;2024-03-22T07:45:34;100899.38;;;16.42;50.10
70555;BME280;58104;52.744;15.242;2024-03-22T07:47:59;100900.57;;;16.68;48.54
70555;BME280;58104;52.744;15.242;2024-03-22T07:50:25;100893.33;;;16.87;48.35
70555;BME280;58104;52.744;15.242;2024-03-22T07:52:50;100893.06;;;16.95;48.02
70555;BME280;58104;52.744;15.242;2024-03-22T07:55:16;100895.75;;;17.04;48.21
70555;BME280;58104;52.744;15.242;2024-03-22T07:57:41;100897.33;;;17.03;47.19
70555;BME280;58104;52.744;15.242;2024-03-22T08:00:07;100897.25;;;17.17;48.02
70555;BME280;58104;52.744;15.242;2024-03-22T08:02:31;100901.76;;;17.24;46.62
70555;BME280;58104;52.744;15.242;2024-03-22T08:04:57;100899.79;;;17.06;46.70
70555;BME280;58104;52.744;15.242;2024-03-22T08:07:23;100904.05;;;17.25;47.28
70555;BME280;58104;52.744;15.242;2024-03-22T08:09:48;100905.85;;;17.14;46.94
70555;BME280;58104;52.744;15.242;2024-03-22T08:12:14;100900.14;;;16.98;46.61
70555;BME280;58104;52.744;15.242;2024-03-22T08:14:39;100899.95;;;17.12;46.55
70555;BME280;58104;52.744;15.242;2024-03-22T08:17:06;100902.24;;;16.92;46.03
70555;BME280;58104;52.744;15.242;2024-03-22T08:19:30;100893.24;;;15.88;50.01
70555;BME280;58104;52.744;15.242;2024-03-22T08:21:56;100897.25;;;16.16;50.92
70555;BME280;58104;52.744;15.242;2024-03-22T08:24:21;100894.79;;;16.00;48.73
70555;BME280;58104;52.744;15.242;2024-03-22T08:26:46;100891.76;;;15.59;49.31
70555;BME280;58104;52.744;15.242;2024-03-22T08:29:11;100894.43;;;15.50;50.84
70555;BME280;58104;52.744;15.242;2024-03-22T08:31:36;100890.22;;;15.93;48.13
70555;BME280;58104;52.744;15.242;2024-03-22T08:34:02;100884.01;;;15.14;49.65
70555;BME280;58104;52.744;15.242;2024-03-22T08:36:28;100884.74;;;16.00;48.43
70555;BME280;58104;52.744;15.242;2024-03-22T08:38:53;100883.21;;;15.61;49.80
70555;BME280;58104;52.744;15.242;2024-03-22T08:41:19;100876.06;;;15.99;49.35
70555;BME280;58104;52.744;15.242;2024-03-22T08:43:45;100875.31;;;16.53;46.44
70555;BME280;58104;52.744;15.242;2024-03-22T08:46:10;100873.47;;;15.75;48.23
70555;BME280;58104;52.744;15.242;2024-03-22T08:48:36;100869.85;;;15.68;48.00
70555;BME280;58104;52.744;15.242;2024-03-22T08:51:01;100863.17;;;15.24;48.93
70555;BME280;58104;52.744;15.242;2024-03-22T08:53:27;100864.11;;;16.25;48.96
70555;BME280;58104;52.744;15.242;2024-03-22T08:55:52;100862.79;;;15.71;47.92
70555;BME280;58104;52.744;15.242;2024-03-22T08:58:17;100864.39;;;16.57;47.28
70555;BME280;58104;52.744;15.242;2024-03-22T09:00:44;100865.12;;;16.43;46.32
70555;BME280;58104;52.744;15.242;2024-03-22T09:03:08;100852.44;;;15.52;48.65
70555;BME280;58104;52.744;15.242;2024-03-22T09:05:33;100849.98;;;15.77;51.03
70555;BME280;58104;52.744;15.242;2024-03-22T09:07:58;100845.12;;;15.67;48.99
70555;BME280;58104;52.744;15.242;2024-03-22T09:10:23;100845.95;;;15.80;49.08
70555;BME280;58104;52.744;15.242;2024-03-22T09:12:49;100835.71;;;15.58;49.66
70555;BME280;58104;52.744;15.242;2024-03-22T09:15:15;100835.75;;;16.31;47.46
70555;BME280;58104;52.744;15.242;2024-03-22T09:17:40;100827.06;;;16.65;47.35
70555;BME280;58104;52.744;15.242;2024-03-22T09:20:06;100824.11;;;15.71;48.78
70555;BME280;58104;52.744;15.242;2024-03-22T09:22:31;100822.63;;;15.93;47.70
70555;BME280;58104;52.744;15.242;2024-03-22T09:24:57;100817.90;;;15.05;50.12
70555;BME280;58104;52.744;15.242;2024-03-22T09:27:22;100814.84;;;15.75;49.02
70555;BME280;58104;52.744;15.242;2024-03-22T09:29:48;100807.00;;;15.91;48.69
70555;BME280;58104;52.744;15.242;2024-03-22T09:32:13;100812.59;;;16.05;48.31
70555;BME280;58104;52.744;15.242;2024-03-22T09:34:39;100810.02;;;15.64;47.96
70555;BME280;58104;52.744;15.242;2024-03-22T09:37:05;100795.55;;;15.58;48.37
70555;BME280;58104;52.744;15.242;2024-03-22T09:39:31;100790.47;;;15.06;49.44
70555;BME280;58104;52.744;15.242;2024-03-22T09:41:57;100787.67;;;15.88;49.52
70555;BME280;58104;52.744;15.242;2024-03-22T09:44:22;100783.82;;;15.89;47.68
70555;BME280;58104;52.744;15.242;2024-03-22T09:46:47;100776.31;;;16.18;47.50
70555;BME280;58104;52.744;15.242;2024-03-22T09:49:13;100767.41;;;16.20;46.20
70555;BME280;58104;52.744;15.242;2024-03-22T09:51:39;100762.28;;;16.42;46.38
70555;BME280;58104;52.744;15.242;2024-03-22T09:54:03;100761.96;;;15.83;47.99
70555;BME280;58104;52.744;15.242;2024-03-22T09:56:30;100755.53;;;15.34;48.74
70555;BME280;58104;52.744;15.242;2024-03-22T09:58:54;100760.48;;;15.04;48.97
70555;BME280;58104;52.744;15.242;2024-03-22T10:01:20;100760.68;;;15.44;48.95
70555;BME280;58104;52.744;15.242;2024-03-22T10:03:46;100749.20;;;16.04;48.42
70555;BME280;58104;52.744;15.242;2024-03-22T10:06:11;100750.60;;;16.63;46.33
70555;BME280;58104;52.744;15.242;2024-03-22T10:08:36;100744.96;;;16.70;46.65
70555;BME280;58104;52.744;15.242;2024-03-22T10:11:02;100744.17;;;17.52;44.88
70555;BME280;58104;52.744;15.242;2024-03-22T10:13:27;100725.60;;;18.06;44.83
70555;BME280;58104;52.744;15.242;2024-03-22T10:15:53;100725.97;;;18.46;43.97
70555;BME280;58104;52.744;15.242;2024-03-22T10:18:19;100728.15;;;18.71;43.07
70555;BME280;58104;52.744;15.242;2024-03-22T10:20:44;100731.36;;;19.02;42.74
70555;BME280;58104;52.744;15.242;2024-03-22T10:23:09;100732.14;;;19.06;41.95
70555;BME280;58104;52.744;15.242;2024-03-22T10:25:35;100734.90;;;19.19;42.17
70555;BME280;58104;52.744;15.242;2024-03-22T10:28:00;100728.08;;;19.31;41.87
70555;BME280;58104;52.744;15.242;2024-03-22T10:30:26;100726.69;;;19.34;41.73
70555;BME280;58104;52.744;15.242;2024-03-22T10:32:51;100722.09;;;19.35;41.85
70555;BME280;58104;52.744;15.242;2024-03-22T10:35:17;100729.54;;;19.26;41.83
70555;BME280;58104;52.744;15.242;2024-03-22T10:37:42;100732.63;;;19.32;41.93
70555;BME280;58104;52.744;15.242;2024-03-22T10:40:09;100721.34;;;19.28;42.14
70555;BME280;58104;52.744;15.242;2024-03-22T10:42:34;100725.28;;;19.41;41.56
70555;BME280;58104;52.744;15.242;2024-03-22T10:44:59;100716.72;;;19.51;42.00
70555;BME280;58104;52.744;15.242;2024-03-22T10:47:29;100711.18;;;19.69;41.61
70555;BME280;58104;52.744;15.242;2024-03-22T10:49:52;100715.04;;;19.59;40.81
70555;BME280;58104;52.744;15.242;2024-03-22T10:52:15;100716.71;;;19.64;42.26
70555;BME280;58104;52.744;15.242;2024-03-22T10:54:44;100709.84;;;19.71;44.48
70555;BME280;58104;52.744;15.242;2024-03-22T10:57:07;100706.74;;;19.79;43.79
70555;BME280;58104;52.744;15.242;2024-03-22T10:59:33;100698.30;;;19.79;43.41
70555;BME280;58104;52.744;15.242;2024-03-22T11:02:03;100693.59;;;19.82;43.54
70555;BME280;58104;52.744;15.242;2024-03-22T11:04:22;100693.59;;;19.87;43.25
70555;BME280;58104;52.744;15.242;2024-03-22T11:06:47;100684.52;;;19.95;42.99
70555;BME280;58104;52.744;15.242;2024-03-22T11:09:18;100690.47;;;20.00;43.00
70555;BME280;58104;52.744;15.242;2024-03-22T11:11:37;100682.42;;;20.04;43.24
70555;BME280;58104;52.744;15.242;2024-03-22T11:14:03;100667.67;;;20.05;42.98
70555;BME280;58104;52.744;15.242;2024-03-22T11:16:30;100664.52;;;20.01;42.77
70555;BME280;58104;52.744;15.242;2024-03-22T11:18:54;100656.20;;;20.11;42.87
70555;BME280;58104;52.744;15.242;2024-03-22T11:21:19;100652.07;;;20.05;42.64
70555;BME280;58104;52.744;15.242;2024-03-22T11:23:45;100640.68;;;20.12;43.49
70555;BME280;58104;52.744;15.242;2024-03-22T11:26:10;100633.20;;;20.06;43.11
70555;BME280;58104;52.744;15.242;2024-03-22T11:28:35;100632.87;;;20.04;41.93
70555;BME280;58104;52.744;15.242;2024-03-22T11:31:01;100627.63;;;20.12;42.22
70555;BME280;58104;52.744;15.242;2024-03-22T11:33:26;100627.79;;;20.02;42.90
70555;BME280;58104;52.744;15.242;2024-03-22T11:35:52;100619.18;;;19.96;42.41
70555;BME280;58104;52.744;15.242;2024-03-22T11:38:17;100620.31;;;20.00;43.13
70555;BME280;58104;52.744;15.242;2024-03-22T11:40:43;100603.40;;;19.94;43.46
70555;BME280;58104;52.744;15.242;2024-03-22T11:43:08;100617.73;;;20.00;43.31
70555;BME280;58104;52.744;15.242;2024-03-22T11:45:33;100613.96;;;19.96;42.76
70555;BME280;58104;52.744;15.242;2024-03-22T11:48:02;100610.96;;;19.94;43.40
70555;BME280;58104;52.744;15.242;2024-03-22T11:50:24;100613.61;;;19.97;42.95
70555;BME280;58104;52.744;15.242;2024-03-22T11:52:50;100621.26;;;20.04;43.10
70555;BME280;58104;52.744;15.242;2024-03-22T11:55:15;100615.37;;;20.05;43.02
70555;BME280;58104;52.744;15.242;2024-03-22T11:57:40;100611.73;;;20.01;42.46
70555;BME280;58104;52.744;15.242;2024-03-22T12:00:07;100603.05;;;19.97;42.54
70555;BME280;58104;52.744;15.242;2024-03-22T12:02:32;100601.59;;;19.97;43.01
70555;BME280;58104;52.744;15.242;2024-03-22T12:04:58;100603.75;;;20.00;42.53
70555;BME280;58104;52.744;15.242;2024-03-22T12:07:24;100597.76;;;20.01;42.47
70555;BME280;58104;52.744;15.242;2024-03-22T12:09:48;100596.49;;;20.07;42.89
70555;BME280;58104;52.744;15.242;2024-03-22T12:12:14;100592.34;;;20.05;42.56
70555;BME280;58104;52.744;15.242;2024-03-22T12:14:39;100586.43;;;19.96;42.12
70555;BME280;58104;52.744;15.242;2024-03-22T12:17:05;100585.92;;;20.06;42.53
70555;BME280;58104;52.744;15.242;2024-03-22T12:19:30;100576.72;;;20.05;42.75
70555;BME280;58104;52.744;15.242;2024-03-22T12:21:55;100571.84;;;20.11;42.63
70555;BME280;58104;52.744;15.242;2024-03-22T12:24:21;100572.26;;;20.11;43.28
70555;BME280;58104;52.744;15.242;2024-03-22T12:26:46;100561.94;;;20.12;42.77
70555;BME280;58104;52.744;15.242;2024-03-22T12:29:12;100566.44;;;20.07;42.43